createdAt,value
2022-08-31T00:00:40.338Z,51.54
2022-08-31T00:01:40.362Z,46.69
2022-08-31T00:02:40.323Z,59.19
2022-08-31T00:03:40.318Z,61.02
2022-08-31T00:04:40.342Z,50.30
2022-08-31T00:05:40.296Z,49.00
2022-08-31T00:06:40.321Z,58.72
2022-08-31T00:07:40.455Z,63.43
2022-08-31T00:08:40.272Z,56.26
2022-08-31T00:09:40.267Z,53.05
2022-08-31T00:10:40.258Z,50.15
2022-08-31T00:11:40.273Z,60.65
2022-08-31T00:12:40.256Z,60.90
2022-08-31T00:13:40.227Z,57.09
2022-08-31T00:14:40.222Z,63.42
2022-08-31T00:15:40.219Z,57.42
2022-08-31T00:16:40.268Z,56.00
2022-08-31T00:17:40.211Z,57.91
2022-08-31T00:18:40.194Z,57.77
2022-08-31T00:19:40.195Z,62.77
2022-08-31T00:20:40.180Z,54.65
2022-08-31T00:21:40.197Z,60.09
2022-08-31T00:22:40.175Z,53.96
2022-08-31T00:23:40.158Z,51.83
2022-08-31T00:24:40.154Z,42.06
2022-08-31T00:25:40.142Z,48.93
2022-08-31T00:26:40.158Z,51.78
2022-08-31T00:27:40.132Z,60.03
2022-08-31T00:28:40.117Z,52.43
2022-08-31T00:29:40.109Z,54.96
2022-08-31T00:30:40.104Z,60.88
2022-08-31T00:31:40.189Z,42.65
2022-08-31T00:32:40.094Z,52.55
2022-08-31T00:33:40.077Z,53.75
2022-08-31T00:34:40.077Z,48.51
2022-08-31T00:35:40.067Z,39.50
2022-08-31T00:36:40.085Z,52.49
2022-08-31T00:37:40.050Z,51.09
2022-08-31T00:38:40.041Z,54.26
2022-08-31T00:39:40.052Z,51.83
2022-08-31T00:40:44.463Z,50.29
2022-08-31T00:41:41.050Z,59.06
2022-08-31T00:42:40.006Z,63.23
2022-08-31T00:43:40.015Z,59.67
2022-08-31T00:44:39.995Z,61.89
2022-08-31T00:45:40.026Z,55.67
2022-08-31T00:46:39.975Z,46.28
2022-08-31T00:47:39.992Z,59.01
2022-08-31T00:48:39.965Z,56.60
2022-08-31T00:49:39.953Z,51.50
2022-08-31T00:50:39.939Z,54.04
2022-08-31T00:51:39.933Z,48.54
2022-08-31T00:52:39.954Z,56.91
2022-08-31T00:53:39.916Z,46.92
2022-08-31T00:54:39.909Z,61.96
2022-08-31T00:55:39.904Z,46.49
2022-08-31T00:56:39.895Z,48.72
2022-08-31T00:57:39.918Z,52.10
2022-08-31T00:58:39.885Z,58.79
2022-08-31T00:59:39.869Z,59.04
2022-08-31T01:00:39.889Z,62.57
2022-08-31T01:01:39.855Z,55.19
2022-08-31T01:02:39.923Z,49.38
2022-08-31T01:03:39.844Z,50.13
2022-08-31T01:04:39.846Z,51.21
2022-08-31T01:05:39.834Z,54.52
2022-08-31T01:06:39.823Z,55.08
2022-08-31T01:07:39.851Z,55.86
2022-08-31T01:08:39.805Z,49.19
2022-08-31T01:09:39.800Z,57.30
2022-08-31T01:10:40.790Z,45.40
2022-08-31T01:11:39.773Z,60.05
2022-08-31T01:12:39.801Z,50.71
2022-08-31T01:13:39.765Z,54.68
2022-08-31T01:14:39.759Z,57.41
2022-08-31T01:15:39.751Z,43.83
2022-08-31T01:16:39.782Z,48.09
2022-08-31T01:17:39.758Z,58.21
2022-08-31T01:18:39.741Z,54.79
2022-08-31T01:19:39.719Z,56.51
2022-08-31T01:20:45.751Z,57.00
2022-08-31T01:21:40.700Z,48.72
2022-08-31T01:22:39.723Z,44.48
2022-08-31T01:23:39.685Z,47.54
2022-08-31T01:24:39.680Z,46.68
2022-08-31T01:25:39.671Z,55.17
2022-08-31T01:26:39.668Z,46.88
2022-08-31T01:27:39.681Z,45.83
2022-08-31T01:28:39.652Z,51.29
2022-08-31T01:29:39.642Z,56.71
2022-08-31T01:30:39.641Z,63.29
2022-08-31T01:31:39.686Z,59.56
2022-08-31T01:32:39.644Z,53.41
2022-08-31T01:33:39.609Z,53.65
2022-08-31T01:34:39.597Z,61.99
2022-08-31T01:35:39.596Z,52.50
2022-08-31T01:36:39.598Z,50.73
2022-08-31T01:37:39.609Z,49.43
2022-08-31T01:38:39.577Z,56.94
2022-08-31T01:39:39.561Z,47.22
2022-08-31T01:40:39.597Z,41.72
2022-08-31T01:41:39.547Z,54.28
2022-08-31T01:42:39.591Z,55.00
2022-08-31T01:43:39.536Z,59.76
2022-08-31T01:44:39.530Z,61.26
2022-08-31T01:45:39.521Z,57.00
2022-08-31T01:46:39.543Z,54.42
2022-08-31T01:47:39.534Z,57.68
2022-08-31T01:48:41.509Z,65.41
2022-08-31T01:49:39.494Z,52.20
2022-08-31T01:50:39.483Z,49.46
2022-08-31T01:51:39.476Z,57.37
2022-08-31T01:52:39.490Z,49.55
2022-08-31T01:53:39.455Z,46.00
2022-08-31T01:54:39.455Z,59.98
2022-08-31T01:55:39.447Z,57.46
2022-08-31T01:56:39.433Z,52.54
2022-08-31T01:57:39.456Z,52.21
2022-08-31T01:58:39.421Z,52.08
2022-08-31T01:59:39.404Z,65.68
2022-08-31T02:00:39.480Z,56.25
2022-08-31T02:01:39.517Z,65.51
2022-08-31T02:02:40.456Z,47.58
2022-08-31T02:03:39.375Z,61.88
2022-08-31T02:04:39.369Z,58.10
2022-08-31T02:05:39.358Z,56.04
2022-08-31T02:06:39.357Z,50.47
2022-08-31T02:07:39.384Z,53.11
2022-08-31T02:08:39.341Z,47.64
2022-08-31T02:09:39.332Z,52.71
2022-08-31T02:10:39.328Z,60.84
2022-08-31T02:11:39.316Z,50.40
2022-08-31T02:12:39.331Z,47.72
2022-08-31T02:13:39.312Z,57.11
2022-08-31T02:14:39.293Z,60.28
2022-08-31T02:15:39.286Z,65.94
2022-08-31T02:16:39.358Z,57.51
2022-08-31T02:17:39.297Z,55.00
2022-08-31T02:18:39.257Z,56.56
2022-08-31T02:19:39.247Z,59.94
2022-08-31T02:20:39.248Z,59.03
2022-08-31T02:21:39.241Z,45.95
2022-08-31T02:22:39.259Z,53.73
2022-08-31T02:23:39.219Z,56.93
2022-08-31T02:24:39.221Z,66.06
2022-08-31T02:25:39.214Z,51.86
2022-08-31T02:26:39.206Z,47.30
2022-08-31T02:27:39.192Z,57.23
2022-08-31T02:28:39.204Z,59.73
2022-08-31T02:29:39.175Z,54.38
2022-08-31T02:30:39.170Z,48.95
2022-08-31T02:31:39.230Z,58.33
2022-08-31T02:32:39.155Z,59.27
2022-08-31T02:33:39.174Z,58.59
2022-08-31T02:34:39.141Z,54.25
2022-08-31T02:35:39.164Z,62.33
2022-08-31T02:36:39.124Z,57.04
2022-08-31T02:37:39.126Z,60.43
2022-08-31T02:38:39.142Z,59.88
2022-08-31T02:39:39.099Z,60.96
2022-08-31T02:40:39.135Z,62.13
2022-08-31T02:41:39.079Z,59.57
2022-08-31T02:42:52.988Z,58.24
2022-08-31T02:43:40.093Z,55.70
2022-08-31T02:44:39.059Z,61.47
2022-08-31T02:45:39.046Z,60.52
2022-08-31T02:46:39.111Z,58.23
2022-08-31T02:47:39.029Z,52.13
2022-08-31T02:48:39.059Z,52.40
2022-08-31T02:49:39.009Z,52.25
2022-08-31T02:50:39.004Z,55.19
2022-08-31T02:51:39.005Z,60.74
2022-08-31T02:52:38.991Z,53.52
2022-08-31T02:53:39.009Z,52.01
2022-08-31T02:54:38.987Z,55.53
2022-08-31T02:55:38.967Z,59.27
2022-08-31T02:56:38.957Z,60.23
2022-08-31T02:57:38.955Z,61.51
2022-08-31T02:58:38.969Z,58.79
2022-08-31T02:59:38.936Z,53.32
2022-08-31T03:00:38.935Z,56.16
2022-08-31T03:01:39.020Z,61.48
2022-08-31T03:02:38.992Z,61.74
2022-08-31T03:03:38.938Z,63.81
2022-08-31T03:04:38.909Z,59.66
2022-08-31T03:05:38.891Z,56.02
2022-08-31T03:06:38.879Z,56.90
2022-08-31T03:07:38.874Z,58.20
2022-08-31T03:08:38.896Z,56.72
2022-08-31T03:09:38.862Z,57.48
2022-08-31T03:10:38.851Z,54.12
2022-08-31T03:11:38.845Z,61.87
2022-08-31T03:12:38.835Z,65.16
2022-08-31T03:13:38.852Z,63.25
2022-08-31T03:14:38.826Z,56.65
2022-08-31T03:15:38.844Z,57.88
2022-08-31T03:16:38.803Z,53.14
2022-08-31T03:17:38.794Z,58.68
2022-08-31T03:18:38.810Z,62.10
2022-08-31T03:19:38.773Z,63.17
2022-08-31T03:20:38.766Z,56.72
2022-08-31T03:21:38.753Z,60.14
2022-08-31T03:22:39.752Z,63.99
2022-08-31T03:23:38.771Z,64.51
2022-08-31T03:24:38.895Z,62.91
2022-08-31T03:25:39.697Z,63.17
2022-08-31T03:26:38.724Z,64.53
2022-08-31T03:27:38.718Z,61.67
2022-08-31T03:28:38.730Z,61.98
2022-08-31T03:29:38.699Z,57.68
2022-08-31T03:30:38.692Z,63.21
2022-08-31T03:31:38.724Z,65.64
2022-08-31T03:32:38.679Z,58.21
2022-08-31T03:33:38.693Z,58.77
2022-08-31T03:34:38.662Z,60.23
2022-08-31T03:35:38.660Z,63.77
2022-08-31T03:36:38.646Z,60.48
2022-08-31T03:37:38.634Z,64.44
2022-08-31T03:38:38.654Z,61.71
2022-08-31T03:39:38.627Z,63.21
2022-08-31T03:40:38.662Z,63.31
2022-08-31T03:41:38.602Z,62.14
2022-08-31T03:42:38.587Z,63.21
2022-08-31T03:43:39.611Z,62.53
2022-08-31T03:44:38.586Z,61.24
2022-08-31T03:45:38.577Z,59.71
2022-08-31T03:46:38.586Z,64.81
2022-08-31T03:47:44.723Z,63.61
2022-08-31T03:48:39.585Z,63.57
2022-08-31T03:49:38.550Z,62.33
2022-08-31T03:50:38.541Z,64.47
2022-08-31T03:51:38.529Z,59.92
2022-08-31T03:52:38.518Z,62.68
2022-08-31T03:53:38.532Z,63.20
2022-08-31T03:54:38.497Z,61.34
2022-08-31T03:55:38.500Z,63.94
2022-08-31T03:56:38.484Z,58.83
2022-08-31T03:57:38.474Z,61.04
2022-08-31T03:58:38.506Z,62.25
2022-08-31T03:59:38.461Z,62.44
2022-08-31T04:00:38.452Z,64.69
2022-08-31T04:01:38.504Z,58.52
2022-08-31T04:02:38.472Z,59.82
2022-08-31T04:03:38.460Z,61.76
2022-08-31T04:04:38.425Z,60.24
2022-08-31T04:05:38.411Z,59.89
2022-08-31T04:06:38.405Z,56.63
2022-08-31T04:07:42.713Z,63.20
2022-08-31T04:08:38.415Z,61.18
2022-08-31T04:09:38.381Z,58.97
2022-08-31T04:10:38.369Z,63.05
2022-08-31T04:11:45.301Z,62.37
2022-08-31T04:12:39.354Z,65.77
2022-08-31T04:13:38.377Z,62.14
2022-08-31T04:14:38.342Z,62.01
2022-08-31T04:15:38.402Z,62.79
2022-08-31T04:16:38.325Z,65.23
2022-08-31T04:17:38.312Z,67.16
2022-08-31T04:18:38.341Z,62.93
2022-08-31T04:19:38.302Z,66.53
2022-08-31T04:20:38.294Z,62.89
2022-08-31T04:21:38.276Z,62.70
2022-08-31T04:22:38.267Z,65.45
2022-08-31T04:23:39.309Z,64.64
2022-08-31T04:24:38.263Z,65.43
2022-08-31T04:25:38.249Z,63.01
2022-08-31T04:26:38.246Z,61.75
2022-08-31T04:27:38.259Z,63.12
2022-08-31T04:28:38.226Z,63.64
2022-08-31T04:29:38.250Z,62.71
2022-08-31T04:30:38.244Z,63.86
2022-08-31T04:31:38.207Z,66.25
2022-08-31T04:32:38.197Z,62.51
2022-08-31T04:33:38.192Z,60.69
2022-08-31T04:34:38.206Z,65.12
2022-08-31T04:35:38.165Z,66.09
2022-08-31T04:36:39.175Z,65.73
2022-08-31T04:37:38.161Z,61.93
2022-08-31T04:38:38.157Z,64.40
2022-08-31T04:39:49.519Z,62.00
2022-08-31T04:40:39.262Z,65.63
2022-08-31T04:41:38.125Z,68.23
2022-08-31T04:42:38.123Z,64.70
2022-08-31T04:43:38.112Z,64.03
2022-08-31T04:44:38.128Z,66.76
2022-08-31T04:45:38.123Z,64.11
2022-08-31T04:46:38.083Z,63.06
2022-08-31T04:47:38.083Z,63.03
2022-08-31T04:48:38.072Z,64.57
2022-08-31T04:49:38.090Z,66.74
2022-08-31T04:50:42.357Z,65.37
2022-08-31T04:51:39.040Z,65.45
2022-08-31T04:52:38.035Z,64.41
2022-08-31T04:53:38.059Z,59.12
2022-08-31T04:54:38.020Z,63.86
2022-08-31T04:55:38.014Z,65.82
2022-08-31T04:56:38.008Z,63.59
2022-08-31T04:57:37.990Z,64.73
2022-08-31T04:58:38.012Z,63.74
2022-08-31T04:59:37.982Z,61.50
2022-08-31T05:00:37.977Z,62.74
2022-08-31T05:01:42.857Z,66.25
2022-08-31T05:02:39.051Z,68.10
2022-08-31T05:03:37.970Z,64.52
2022-08-31T05:04:37.933Z,63.09
2022-08-31T05:05:37.930Z,67.87
2022-08-31T05:06:37.918Z,65.58
2022-08-31T05:07:37.911Z,63.70
2022-08-31T05:08:37.930Z,62.86
2022-08-31T05:09:37.897Z,64.42
2022-08-31T05:10:37.898Z,62.16
2022-08-31T05:11:37.880Z,65.53
2022-08-31T05:12:37.869Z,62.19
2022-08-31T05:13:37.895Z,62.22
2022-08-31T05:14:37.860Z,66.12
2022-08-31T05:15:37.865Z,63.02
2022-08-31T05:16:37.835Z,63.07
2022-08-31T05:17:38.834Z,64.60
2022-08-31T05:18:37.828Z,64.88
2022-08-31T05:19:40.991Z,62.71
2022-08-31T05:20:38.812Z,64.47
2022-08-31T05:21:37.804Z,62.65
2022-08-31T05:22:37.799Z,64.09
2022-08-31T05:23:37.782Z,65.59
2022-08-31T05:24:37.806Z,64.71
2022-08-31T05:25:37.768Z,64.43
2022-08-31T05:26:38.057Z,60.12
2022-08-31T05:27:37.754Z,63.26
2022-08-31T05:28:37.750Z,62.65
2022-08-31T05:29:37.766Z,60.59
2022-08-31T05:30:37.787Z,63.09
2022-08-31T05:31:37.727Z,64.83
2022-08-31T05:32:37.758Z,58.03
2022-08-31T05:33:37.708Z,64.62
2022-08-31T05:34:37.734Z,63.82
2022-08-31T05:35:37.694Z,64.00
2022-08-31T05:36:37.689Z,59.76
2022-08-31T05:37:37.674Z,59.51
2022-08-31T05:38:37.664Z,63.94
2022-08-31T05:39:37.688Z,67.57
2022-08-31T05:40:37.696Z,63.67
2022-08-31T05:41:37.642Z,61.95
2022-08-31T05:42:37.634Z,63.42
2022-08-31T05:43:37.620Z,63.71
2022-08-31T05:44:38.652Z,67.20
2022-08-31T05:45:37.613Z,61.75
2022-08-31T05:46:37.663Z,60.58
2022-08-31T05:47:37.590Z,67.32
2022-08-31T05:48:37.597Z,62.24
2022-08-31T05:49:37.605Z,62.23
2022-08-31T05:50:37.571Z,63.96
2022-08-31T05:51:38.493Z,62.54
2022-08-31T05:52:38.558Z,62.60
2022-08-31T05:53:37.543Z,63.17
2022-08-31T05:54:37.565Z,65.41
2022-08-31T05:55:37.532Z,64.98
2022-08-31T05:56:37.524Z,60.73
2022-08-31T05:57:37.518Z,62.61
2022-08-31T05:58:37.509Z,66.44
2022-08-31T05:59:37.526Z,62.69
2022-08-31T06:00:37.494Z,60.16
2022-08-31T06:01:37.522Z,62.97
2022-08-31T06:02:37.479Z,58.17
2022-08-31T06:03:37.476Z,62.99
2022-08-31T06:04:37.488Z,62.12
2022-08-31T06:05:37.500Z,60.79
2022-08-31T06:06:38.447Z,60.13
2022-08-31T06:07:37.443Z,64.67
2022-08-31T06:08:37.437Z,65.21
2022-08-31T06:09:37.451Z,62.15
2022-08-31T06:10:37.427Z,59.97
2022-08-31T06:11:37.408Z,61.08
2022-08-31T06:12:37.404Z,64.85
2022-08-31T06:13:37.394Z,66.05
2022-08-31T06:14:38.794Z,61.72
2022-08-31T06:15:42.201Z,61.64
2022-08-31T06:16:38.435Z,62.53
2022-08-31T06:17:37.365Z,63.50
2022-08-31T06:18:37.352Z,65.02
2022-08-31T06:19:37.381Z,63.06
2022-08-31T06:20:37.344Z,65.74
2022-08-31T06:21:37.327Z,63.92
2022-08-31T06:22:37.331Z,63.74
2022-08-31T06:23:37.341Z,64.53
2022-08-31T06:24:37.309Z,61.95
2022-08-31T06:25:37.332Z,64.83
2022-08-31T06:26:37.297Z,62.94
2022-08-31T06:27:37.284Z,61.72
2022-08-31T06:28:37.278Z,64.91
2022-08-31T06:29:37.307Z,61.99
2022-08-31T06:30:47.802Z,67.90
2022-08-31T06:31:38.275Z,63.33
2022-08-31T06:32:37.241Z,62.41
2022-08-31T06:33:37.234Z,59.27
2022-08-31T06:34:37.227Z,65.48
2022-08-31T06:35:37.244Z,64.66
2022-08-31T06:36:37.214Z,62.04
2022-08-31T06:37:37.210Z,65.62
2022-08-31T06:38:37.194Z,61.32
2022-08-31T06:39:37.191Z,60.95
2022-08-31T06:40:37.310Z,63.80
2022-08-31T06:41:37.177Z,63.83
2022-08-31T06:42:37.160Z,61.56
2022-08-31T06:43:37.160Z,66.64
2022-08-31T06:44:37.148Z,64.87
2022-08-31T06:45:37.163Z,61.45
2022-08-31T06:46:37.197Z,62.21
2022-08-31T06:47:37.126Z,63.91
2022-08-31T06:48:37.122Z,59.08
2022-08-31T06:49:37.104Z,61.57
2022-08-31T06:50:37.125Z,62.92
2022-08-31T06:51:37.101Z,63.53
2022-08-31T06:52:39.094Z,63.48
2022-08-31T06:53:38.074Z,61.46
2022-08-31T06:54:37.062Z,62.76
2022-08-31T06:55:37.089Z,60.73
2022-08-31T06:56:37.053Z,61.19
2022-08-31T06:57:37.046Z,61.89
2022-08-31T06:58:37.035Z,62.53
2022-08-31T06:59:37.055Z,60.02
2022-08-31T07:00:37.016Z,62.92
2022-08-31T07:01:37.063Z,62.25
2022-08-31T07:02:37.089Z,63.67
2022-08-31T07:03:37.003Z,61.46
2022-08-31T07:04:37.018Z,65.35
2022-08-31T07:05:36.984Z,63.34
2022-08-31T07:06:36.977Z,64.76
2022-08-31T07:07:36.979Z,63.48
2022-08-31T07:08:36.956Z,63.11
2022-08-31T07:09:36.968Z,61.40
2022-08-31T07:10:36.947Z,60.38
2022-08-31T07:11:39.829Z,61.45
2022-08-31T07:12:37.925Z,64.19
2022-08-31T07:13:36.927Z,62.25
2022-08-31T07:14:36.965Z,61.18
2022-08-31T07:15:36.906Z,63.13
2022-08-31T07:16:37.032Z,60.39
2022-08-31T07:17:36.891Z,61.87
2022-08-31T07:18:36.888Z,64.62
2022-08-31T07:19:36.915Z,65.69
2022-08-31T07:20:36.864Z,64.50
2022-08-31T07:21:36.854Z,65.19
2022-08-31T07:22:36.853Z,66.00
2022-08-31T07:23:36.845Z,62.28
2022-08-31T07:24:36.861Z,61.73
2022-08-31T07:25:36.822Z,66.31
2022-08-31T07:26:36.851Z,62.95
2022-08-31T07:27:36.811Z,63.97
2022-08-31T07:28:36.804Z,65.66
2022-08-31T07:29:36.829Z,62.51
2022-08-31T07:30:36.855Z,64.11
2022-08-31T07:31:36.785Z,63.17
2022-08-31T07:32:36.777Z,63.10
2022-08-31T07:33:36.767Z,61.68
2022-08-31T07:34:36.785Z,63.95
2022-08-31T07:35:36.745Z,64.10
2022-08-31T07:36:36.742Z,62.06
2022-08-31T07:37:36.734Z,60.31
2022-08-31T07:38:36.883Z,62.67
2022-08-31T07:39:36.719Z,64.95
2022-08-31T07:40:36.786Z,62.98
2022-08-31T07:41:36.707Z,64.85
2022-08-31T07:42:36.687Z,63.97
2022-08-31T07:43:36.682Z,63.37
2022-08-31T07:44:36.685Z,62.35
2022-08-31T07:45:39.119Z,61.34
2022-08-31T07:46:37.703Z,64.29
2022-08-31T07:47:36.651Z,62.11
2022-08-31T07:48:36.643Z,64.17
2022-08-31T07:49:36.630Z,64.17
2022-08-31T07:50:36.660Z,63.80
2022-08-31T07:51:36.614Z,62.64
2022-08-31T07:52:36.605Z,61.33
2022-08-31T07:53:36.602Z,61.02
2022-08-31T07:54:36.590Z,63.42
2022-08-31T07:55:36.610Z,64.22
2022-08-31T07:56:36.581Z,61.79
2022-08-31T07:57:36.576Z,62.16
2022-08-31T07:58:36.565Z,60.89
2022-08-31T07:59:36.554Z,57.50
2022-08-31T08:00:36.572Z,59.45
2022-08-31T08:01:36.588Z,61.99
2022-08-31T08:02:36.705Z,61.98
2022-08-31T08:03:36.521Z,61.25
2022-08-31T08:04:36.513Z,62.06
2022-08-31T08:05:36.540Z,59.99
2022-08-31T08:06:36.498Z,60.77
2022-08-31T08:07:36.498Z,64.82
2022-08-31T08:08:36.485Z,62.63
2022-08-31T08:09:36.471Z,62.31
2022-08-31T08:10:36.495Z,64.35
2022-08-31T08:11:36.455Z,63.05
2022-08-31T08:12:36.450Z,63.67
2022-08-31T08:13:36.443Z,59.32
2022-08-31T08:14:36.441Z,59.61
2022-08-31T08:15:36.456Z,62.98
2022-08-31T08:16:36.481Z,61.44
2022-08-31T08:17:36.413Z,60.73
2022-08-31T08:18:36.402Z,64.70
2022-08-31T08:19:36.395Z,62.06
2022-08-31T08:20:38.292Z,65.07
2022-08-31T08:21:36.380Z,62.90
2022-08-31T08:22:51.319Z,61.42
2022-08-31T08:23:38.374Z,62.93
2022-08-31T08:24:36.361Z,61.01
2022-08-31T08:25:36.387Z,60.07
2022-08-31T08:26:36.342Z,63.36
2022-08-31T08:27:36.342Z,62.39
2022-08-31T08:28:39.732Z,61.82
2022-08-31T08:29:37.313Z,60.03
2022-08-31T08:30:36.338Z,62.42
2022-08-31T08:31:36.344Z,67.03
2022-08-31T08:32:36.302Z,61.03
2022-08-31T08:33:36.288Z,63.74
2022-08-31T08:34:36.279Z,63.26
2022-08-31T08:35:36.302Z,64.14
2022-08-31T08:36:36.260Z,61.69
2022-08-31T08:37:57.126Z,62.53
2022-08-31T08:38:38.246Z,64.94
2022-08-31T08:39:36.247Z,66.06
2022-08-31T08:40:36.317Z,64.72
2022-08-31T08:41:36.229Z,59.52
2022-08-31T08:42:36.218Z,62.45
2022-08-31T08:43:36.206Z,63.13
2022-08-31T08:44:36.205Z,60.59
2022-08-31T08:45:36.254Z,63.10
2022-08-31T08:46:36.262Z,60.79
2022-08-31T08:47:38.793Z,61.83
2022-08-31T08:48:36.167Z,61.70
2022-08-31T08:49:36.161Z,57.50
2022-08-31T08:50:36.153Z,63.07
2022-08-31T08:51:36.175Z,64.01
2022-08-31T08:52:36.137Z,63.63
2022-08-31T08:53:36.130Z,61.06
2022-08-31T08:54:36.116Z,60.71
2022-08-31T08:55:36.141Z,62.54
2022-08-31T08:56:36.120Z,64.12
2022-08-31T08:57:36.098Z,64.47
2022-08-31T08:58:36.087Z,58.54
2022-08-31T08:59:36.108Z,62.09
2022-08-31T09:00:36.098Z,60.36
2022-08-31T09:01:36.135Z,62.37
2022-08-31T09:02:36.130Z,63.63
2022-08-31T09:03:36.048Z,63.00
2022-08-31T09:04:36.045Z,61.87
2022-08-31T09:05:36.069Z,64.83
2022-08-31T09:06:46.009Z,60.03
2022-08-31T09:07:37.017Z,63.64
2022-08-31T09:08:36.014Z,60.29
2022-08-31T09:09:36.007Z,63.41
2022-08-31T09:10:36.033Z,64.20
2022-08-31T09:11:35.991Z,63.88
2022-08-31T09:12:35.985Z,61.85
2022-08-31T09:13:35.969Z,60.16
2022-08-31T09:14:35.964Z,59.61
2022-08-31T09:15:36.039Z,62.78
2022-08-31T09:16:36.031Z,58.88
2022-08-31T09:17:35.941Z,57.71
2022-08-31T09:18:35.935Z,63.73
2022-08-31T09:19:35.929Z,64.05
2022-08-31T09:20:35.954Z,61.87
2022-08-31T09:21:35.909Z,61.14
2022-08-31T09:22:35.902Z,58.53
2022-08-31T09:23:35.921Z,63.41
2022-08-31T09:24:35.890Z,63.95
2022-08-31T09:25:35.875Z,63.12
2022-08-31T09:26:35.900Z,63.12
2022-08-31T09:27:35.860Z,63.21
2022-08-31T09:28:35.853Z,62.98
2022-08-31T09:29:35.841Z,60.50
2022-08-31T09:30:35.832Z,62.11
2022-08-31T09:31:35.961Z,61.02
2022-08-31T09:32:35.820Z,60.88
2022-08-31T09:33:35.812Z,61.77
2022-08-31T09:34:35.804Z,60.92
2022-08-31T09:35:35.793Z,65.80
2022-08-31T09:36:35.809Z,62.47
2022-08-31T09:37:35.775Z,63.68
2022-08-31T09:38:35.779Z,62.71
2022-08-31T09:39:37.212Z,60.96
2022-08-31T09:40:35.783Z,62.09
2022-08-31T09:41:35.775Z,63.93
2022-08-31T09:42:35.740Z,63.07
2022-08-31T09:43:35.733Z,61.47
2022-08-31T09:44:35.739Z,61.97
2022-08-31T09:45:38.903Z,59.30
2022-08-31T09:46:36.734Z,67.19
2022-08-31T09:47:35.706Z,63.61
2022-08-31T09:48:35.702Z,62.73
2022-08-31T09:49:35.687Z,63.17
2022-08-31T09:50:35.760Z,61.75
2022-08-31T09:51:35.698Z,60.23
2022-08-31T09:52:35.669Z,63.04
2022-08-31T09:53:35.670Z,61.59
2022-08-31T09:54:35.656Z,64.04
2022-08-31T09:55:35.641Z,64.84
2022-08-31T09:56:35.659Z,62.08
2022-08-31T09:57:35.628Z,62.61
2022-08-31T09:58:35.621Z,65.37
2022-08-31T09:59:35.609Z,63.20
2022-08-31T10:00:35.599Z,60.77
2022-08-31T10:01:35.665Z,61.01
2022-08-31T10:02:35.590Z,58.75
2022-08-31T10:03:35.591Z,66.54
2022-08-31T10:04:35.614Z,61.85
2022-08-31T10:05:35.592Z,62.95
2022-08-31T10:06:35.577Z,62.21
2022-08-31T10:07:35.545Z,60.63
2022-08-31T10:08:35.527Z,64.38
2022-08-31T10:09:36.528Z,63.28
2022-08-31T10:10:35.538Z,62.93
2022-08-31T10:11:36.516Z,64.46
2022-08-31T10:12:35.505Z,63.19
2022-08-31T10:13:35.503Z,63.43
2022-08-31T10:14:35.489Z,62.84
2022-08-31T10:15:35.549Z,60.34
2022-08-31T10:16:35.505Z,62.57
2022-08-31T10:17:35.468Z,63.34
2022-08-31T10:18:35.457Z,63.25
2022-08-31T10:19:35.451Z,63.46
2022-08-31T10:20:35.473Z,63.14
2022-08-31T10:21:35.434Z,59.91
2022-08-31T10:22:35.421Z,64.27
2022-08-31T10:23:35.416Z,60.76
2022-08-31T10:24:35.423Z,62.12
2022-08-31T10:25:35.397Z,63.54
2022-08-31T10:26:35.421Z,61.54
2022-08-31T10:27:35.385Z,64.08
2022-08-31T10:28:35.380Z,61.36
2022-08-31T10:29:35.372Z,61.31
2022-08-31T10:30:35.360Z,63.05
2022-08-31T10:31:35.476Z,61.39
2022-08-31T10:32:35.346Z,61.80
2022-08-31T10:33:35.339Z,68.43
2022-08-31T10:34:35.329Z,62.50
2022-08-31T10:35:35.362Z,58.83
2022-08-31T10:36:35.344Z,63.36
2022-08-31T10:37:35.307Z,64.22
2022-08-31T10:38:35.299Z,58.41
2022-08-31T10:39:35.291Z,58.38
2022-08-31T10:40:35.394Z,60.65
2022-08-31T10:41:35.299Z,62.09
2022-08-31T10:42:35.254Z,62.80
2022-08-31T10:43:36.260Z,63.80
2022-08-31T10:44:35.249Z,63.87
2022-08-31T10:45:35.247Z,63.82
2022-08-31T10:46:35.334Z,64.02
2022-08-31T10:47:35.228Z,62.73
2022-08-31T10:48:35.220Z,63.03
2022-08-31T10:49:35.212Z,62.17
2022-08-31T10:50:35.229Z,64.86
2022-08-31T10:51:35.198Z,64.29
2022-08-31T10:52:35.187Z,64.52
2022-08-31T10:53:39.861Z,62.59
2022-08-31T10:54:36.176Z,61.85
2022-08-31T10:55:35.193Z,60.96
2022-08-31T10:56:35.152Z,59.16
2022-08-31T10:57:36.156Z,62.13
2022-08-31T10:58:35.143Z,64.05
2022-08-31T10:59:35.137Z,62.29
2022-08-31T11:00:35.158Z,63.32
2022-08-31T11:01:35.177Z,63.86
2022-08-31T11:02:35.113Z,59.44
2022-08-31T11:03:35.181Z,64.28
2022-08-31T11:04:35.171Z,64.88
2022-08-31T11:05:35.125Z,60.99
2022-08-31T11:06:35.083Z,61.30
2022-08-31T11:07:35.075Z,62.16
2022-08-31T11:08:35.066Z,62.34
2022-08-31T11:09:35.066Z,64.09
2022-08-31T11:10:35.087Z,61.84
2022-08-31T11:11:35.047Z,63.57
2022-08-31T11:12:35.043Z,63.41
2022-08-31T11:13:35.028Z,63.87
2022-08-31T11:14:35.023Z,61.49
2022-08-31T11:15:35.073Z,62.53
2022-08-31T11:16:35.009Z,63.86
2022-08-31T11:17:35.005Z,62.69
2022-08-31T11:18:34.993Z,63.04
2022-08-31T11:19:34.982Z,65.15
2022-08-31T11:20:34.977Z,62.86
2022-08-31T11:21:34.994Z,64.28
2022-08-31T11:22:34.964Z,60.22
2022-08-31T11:23:34.953Z,62.06
2022-08-31T11:24:37.535Z,62.39
2022-08-31T11:25:35.961Z,63.50
2022-08-31T11:26:34.927Z,61.93
2022-08-31T11:27:34.920Z,60.33
2022-08-31T11:28:34.915Z,63.63
2022-08-31T11:29:34.910Z,61.59
2022-08-31T11:30:38.606Z,63.95
2022-08-31T11:31:36.029Z,63.35
2022-08-31T11:32:34.882Z,63.11
2022-08-31T11:33:34.878Z,61.06
2022-08-31T11:34:34.867Z,60.36
2022-08-31T11:35:34.859Z,62.35
2022-08-31T11:36:35.879Z,62.89
2022-08-31T11:37:34.848Z,64.87
2022-08-31T11:38:34.836Z,63.70
2022-08-31T11:39:34.832Z,61.81
2022-08-31T11:40:34.911Z,64.07
2022-08-31T11:41:34.814Z,65.46
2022-08-31T11:42:34.806Z,63.08
2022-08-31T11:43:34.803Z,60.72
2022-08-31T11:44:34.795Z,59.94
2022-08-31T11:45:34.819Z,59.09
2022-08-31T11:46:34.810Z,62.89
2022-08-31T11:47:34.785Z,64.71
2022-08-31T11:48:34.760Z,64.40
2022-08-31T11:49:34.750Z,61.04
2022-08-31T11:50:34.776Z,62.72
2022-08-31T11:51:40.091Z,60.98
2022-08-31T11:52:36.728Z,61.78
2022-08-31T11:53:34.726Z,62.02
2022-08-31T11:54:34.711Z,63.99
2022-08-31T11:55:34.733Z,65.00
2022-08-31T11:56:34.698Z,62.63
2022-08-31T11:57:37.757Z,61.91
2022-08-31T11:58:35.682Z,61.46
2022-08-31T11:59:34.673Z,62.01
2022-08-31T12:00:34.722Z,58.58
2022-08-31T12:01:34.684Z,62.41
2022-08-31T12:02:34.729Z,64.14
2022-08-31T12:03:34.642Z,62.72
2022-08-31T12:04:34.635Z,58.64
2022-08-31T12:05:34.673Z,60.26
2022-08-31T12:06:34.644Z,63.70
2022-08-31T12:07:34.624Z,63.14
2022-08-31T12:08:34.598Z,64.67
2022-08-31T12:09:34.594Z,63.48
2022-08-31T12:10:34.587Z,63.75
2022-08-31T12:11:34.603Z,63.25
2022-08-31T12:12:34.572Z,65.33
2022-08-31T12:13:34.563Z,62.76
2022-08-31T12:14:34.558Z,59.12
2022-08-31T12:15:34.582Z,62.25
2022-08-31T12:16:34.562Z,65.12
2022-08-31T12:17:34.537Z,63.45
2022-08-31T12:18:34.910Z,60.48
2022-08-31T12:19:34.517Z,60.58
2022-08-31T12:20:34.556Z,65.17
2022-08-31T12:21:34.503Z,64.70
2022-08-31T12:22:34.492Z,63.35
2022-08-31T12:23:34.642Z,64.00
2022-08-31T12:24:34.475Z,63.96
2022-08-31T12:25:34.499Z,60.41
2022-08-31T12:26:34.469Z,62.18
2022-08-31T12:27:34.454Z,64.83
2022-08-31T12:28:34.476Z,64.45
2022-08-31T12:29:34.460Z,63.65
2022-08-31T12:30:34.521Z,62.20
2022-08-31T12:31:34.451Z,62.34
2022-08-31T12:32:34.414Z,67.28
2022-08-31T12:33:34.410Z,63.13
2022-08-31T12:34:34.399Z,61.98
2022-08-31T12:35:34.417Z,62.02
2022-08-31T12:36:34.385Z,62.76
2022-08-31T12:37:34.374Z,63.49
2022-08-31T12:38:34.371Z,63.65
2022-08-31T12:39:34.360Z,64.01
2022-08-31T12:40:34.546Z,64.60
2022-08-31T12:41:34.342Z,64.89
2022-08-31T12:42:34.339Z,62.60
2022-08-31T12:43:34.328Z,61.89
2022-08-31T12:44:34.320Z,64.66
2022-08-31T12:45:34.343Z,62.19
2022-08-31T12:46:34.402Z,63.79
2022-08-31T12:47:34.297Z,64.50
2022-08-31T12:48:34.300Z,65.21
2022-08-31T12:49:34.285Z,62.68
2022-08-31T12:50:34.403Z,62.51
2022-08-31T12:51:34.265Z,65.33
2022-08-31T12:52:34.256Z,65.56